EW6304 Weather Reports


Display with metric or nautical units.
time (UTC)temp
F
wind
direction
speed
MPH
gust
MPH
rain 1hr
in
rain 24hr
in
rain mn
in
humidity
%
barometer
mb
20221203190218 57 42 3.0 9.0 0.08 0.09 0.09 94 1012.6
20221203190213 57 155 3.0 8.0 0.07 0.09 0.09 94 1012.5
20221203185212 57 178 3.0 14.0 0.07 0.08 0.08 94 1012.8
20221203184710 57 76 3.0 14.0 0.06 0.07 0.07 94 1013.0
20221203184211 57 154 4.0 9.0 0.07 0.07 0.07 94 1012.7
20221203183707 57 91 4.0 8.0 0.06 0.06 0.06 94 1013.1
20221203183207 57 119 3.0 9.0 0.06 0.06 0.06 93 1013.1
20221203182708 57 38 3.0 14.0 0.06 0.06 0.06 93 1013.4
20221203182212 57 105 3.0 12.0 0.04 0.04 0.05 93 1013.7
20221203182208 57 37 3.0 14.0 0.05 0.05 0.05 93 1013.5
20221203181208 57 123 3.0 12.0 0.04 0.04 0.04 92 1013.8
20221203180705 57 311 3.0 10.0 0.03 0.03 0.03 92 1013.8
20221203180207 57 178 3.0 11.0 0.02 0.02 0.02 92 1013.8
20221203175705 57 130 3.0 11.0 0.01 0.01 0.01 91 1013.8
20221203175207 57 213 3.0 11.0 0.01 0.01 0.01 91 1014.0
20221203174706 57 236 3.0 10.0 0.01 0.01 0.01 91 1014.1
20221203174205 57 38 3.0 13.0 0.00 0.00 0.00 90 1014.3
20221203173705 58 184 3.0 13.0 0.00 0.00 0.00 90 1014.5
20221203173205 58 96 3.0 8.0 0.00 0.00 0.00 89 1014.6
20221203172705 58 207 3.0 11.0 0.00 0.00 0.00 89 1014.5
20221203172206 58 197 3.0 14.0 0.00 0.00 0.00 88 1014.9
20221203171703 58 55 4.0 14.0 0.00 0.00 0.00 87 1015.1
20221203171204 58 207 4.0 16.0 0.00 0.00 0.00 86 1015.2
20221203170703 58 98 4.0 16.0 0.00 0.00 0.00 86 1015.3
20221203170203 58 54 4.0 13.0 0.00 0.00 0.00 86 1015.5
20221203165704 58 58 3.0 15.0 0.00 0.00 0.00 85 1015.5
20221203165203 59 92 3.0 15.0 0.00 0.00 0.00 84 1015.6
20221203164704 59 67 3.0 13.0 0.00 0.00 0.00 82 1016.0
20221203164208 60 135 3.0 9.0 0.00 0.00 0.00 80 1016.1
20221203164204 60 148 3.0 8.0 0.00 0.00 0.00 81 1016.2
20221203163204 60 87 3.0 9.0 0.00 0.00 0.00 80 1016.5
20221203162701 60 71 3.0 9.0 0.00 0.00 0.00 80 1016.5
20221203162202 60 157 3.0 10.0 0.00 0.00 0.00 80 1016.3
20221203161701 60 95 3.0 10.0 0.00 0.00 0.00 80 1016.9
20221203161201 60 203 3.0 10.0 0.00 0.00 0.00 79 1017.0
20221203160659 60 194 3.0 11.0 0.00 0.00 0.00 79 1017.2
20221203160158 60 313 3.0 11.0 0.00 0.00 0.00 79 1017.2
20221203155700 60 39 3.0 13.0 0.00 0.00 0.00 79 1017.6
20221203155157 60 79 4.0 14.0 0.00 0.00 0.00 79 1017.6
20221203154704 60 26 3.0 7.0 0.00 0.00 0.00 80 1018.1
20221203154657 60 178 4.0 14.0 0.00 0.00 0.00 79 1017.9
20221203154156 60 109 3.0 11.0 0.00 0.00 0.00 79 1017.8
20221203153157 59 347 3.0 13.0 0.00 0.00 0.00 80 1018.2
20221203152658 59 76 3.0 13.0 0.00 0.00 0.00 81 1018.3
20221203152157 59 211 2.0 5.0 0.00 0.00 0.00 81 1018.5
20221203151656 59 107 3.0 9.0 0.00 0.00 0.00 82 1018.9
20221203151202 58 271 3.0 12.0 0.00 0.00 0.00 83 1019.1
20221203151158 59 136 3.0 9.0 0.00 0.00 0.00 82 1019.1
20221203150156 58 116 3.0 12.0 0.00 0.00 0.00 83 1019.3
20221203145658 58 224 2.0 7.0 0.00 0.00 0.00 84 1019.5
20221203145156 58 194 2.0 5.0 0.00 0.00 0.00 84 1019.6
20221203144655 58 132 2.0 6.0 0.00 0.00 0.00 84 1019.8
20221203144154 58 28 2.0 9.0 0.00 0.00 0.00 85 1020.0
20221203143659 58 90 3.0 13.0 0.00 0.00 0.00 83 1020.3
20221203143655 58 59 2.0 9.0 0.00 0.00 0.00 85 1020.1
20221203142655 58 138 3.0 13.0 0.00 0.00 0.00 83 1020.6
20221203142154 58 153 2.0 9.0 0.00 0.00 0.00 82 1020.6
20221203141654 58 15 2.0 8.0 0.00 0.00 0.00 81 1020.8
20221203141154 58 136 3.0 10.0 0.00 0.00 0.00 81 1020.8
20221203140654 58 162 3.0 10.0 0.00 0.00 0.00 81 1021.0
20221203140154 57 63 2.0 8.0 0.00 0.00 0.00 82 1021.1
20221203135654 57 211 2.0 9.0 0.00 0.00 0.00 83 1021.1
20221203135155 57 132 2.0 9.0 0.00 0.00 0.00 83 1021.1
20221203134656 56 175 3.0 9.0 0.00 0.00 0.00 84 1021.1
20221203134155 56 173 2.0 9.0 0.00 0.00 0.00 85 1021.2
20221203133654 56 105 2.0 10.0 0.00 0.00 0.00 87 1021.2
20221203133156 55 139 2.0 10.0 0.00 0.00 0.00 89 1021.4
20221203132655 54 17 2.0 5.0 0.00 0.00 0.00 91 1021.4
20221203132155 53 121 2.0 9.0 0.00 0.00 0.00 93 1021.6
20221203131659 52 39 0.0 4.0 0.00 0.00 0.00 95 1021.9
20221203131655 53 155 1.0 9.0 0.00 0.00 0.00 94 1021.7
20221203130659 51 41 0.0 0.0 0.00 0.00 0.00 95 1021.8
20221203130654 51 18 0.0 1.0 0.00 0.00 0.00 95 1021.8
20221203125651 51 172 0.0 0.0 0.00 0.00 0.00 95 1021.9
20221203125151 50 172 0.0 0.0 0.00 0.00 0.00 95 1022.0
20221203124650 50 172 0.0 0.0 0.00 0.00 0.00 95 1022.1
20221203124150 50 173 0.0 0.0 0.00 0.00 0.00 95 1022.2
20221203123656 49 178 0.0 0.0 0.00 0.00 0.00 95 1022.4
20221203123652 49 165 0.0 0.0 0.00 0.00 0.00 95 1022.3
20221203123152 49 165 0.0 0.0 0.00 0.00 0.00 95 1022.4
20221203122150 48 178 0.0 0.0 0.00 0.00 0.00 95 1022.4
20221203121650 48 180 0.0 0.0 0.00 0.00 0.00 95 1022.4
20221203121149 47 180 0.0 0.0 0.00 0.00 0.00 95 1022.4
20221203120649 47 180 0.0 0.0 0.00 0.00 0.00 95 1022.5
20221203120148 47 180 0.0 0.0 0.00 0.00 0.00 95 1022.5
20221203115646 47 180 0.0 0.0 0.00 0.00 0.00 95 1022.6
20221203115148 47 180 0.0 0.0 0.00 0.00 0.00 95 1022.7
20221203114649 46 180 0.0 0.0 0.00 0.00 0.00 95 1022.8
20221203114146 46 180 0.0 0.0 0.00 0.00 0.00 95 1022.7
20221203113647 46 180 0.0 0.0 0.00 0.00 0.00 95 1022.9
20221203113151 45 180 0.0 0.0 0.00 0.00 0.00 95 1022.9
20221203113147 45 180 0.0 0.0 0.00 0.00 0.00 95 1022.8
20221203112146 45 180 0.0 0.0 0.00 0.00 0.00 94 1023.0
20221203111651 44 180 0.0 0.0 0.00 0.00 0.00 94 1023.2
20221203111646 45 180 0.0 0.0 0.00 0.00 0.00 95 1023.1
20221203110649 44 180 0.0 0.0 0.00 0.00 0.00 94 1023.3
20221203110645 44 180 0.0 0.0 0.00 0.00 0.00 95 1023.3
20221203105644 43 180 0.0 0.0 0.00 0.00 0.00 94 1023.4
20221203105150 43 180 0.0 0.0 0.00 0.00 0.00 94 1023.4
20221203105144 43 180 0.0 0.0 0.00 0.00 0.00 95 1023.4
20221203104144 43 180 0.0 0.0 0.00 0.00 0.00 95 1023.5
20221203103644 43 180 0.0 0.0 0.00 0.00 0.00 95 1023.7
20221203103149 42 180 0.0 0.0 0.00 0.00 0.00 95 1023.9
20221203103144 42 180 0.0 0.0 0.00 0.00 0.00 95 1023.7
20221203102148 41 180 0.0 0.0 0.00 0.00 0.00 94 1024.2
20221203102143 41 180 0.0 0.0 0.00 0.00 0.00 94 1024.0
20221203101643 41 180 0.0 0.0 0.00 0.00 0.00 94 1024.1
20221203100643 40 180 0.0 0.0 0.00 0.00 0.00 94 1024.3
20221203100143 40 180 0.0 0.0 0.00 0.00 0.00 94 1024.4
20221203095642 40 180 0.0 0.0 0.00 0.00 0.00 94 1024.6
20221203095142 40 180 0.0 0.0 0.00 0.00 0.00 94 1024.8
20221203094642 40 180 0.0 0.0 0.00 0.00 0.00 94 1024.8
20221203094143 40 180 0.0 0.0 0.00 0.00 0.00 94 1025.1
20221203093642 40 180 0.0 0.0 0.00 0.00 0.00 94 1025.3
20221203093140 39 180 0.0 0.0 0.00 0.00 0.00 94 1025.4
20221203092641 39 180 0.0 0.0 0.00 0.00 0.00 94 1025.4
20221203092140 39 180 0.0 0.0 0.00 0.00 0.00 94 1025.4
20221203091641 38 180 0.0 0.0 0.00 0.00 0.00 94 1025.5
20221203091138 38 180 0.0 0.0 0.00 0.00 0.00 94 1025.5
20221203090638 38 180 0.0 0.0 0.00 0.00 0.00 94 1025.5
20221203090138 38 180 0.0 0.0 0.00 0.00 0.00 94 1025.6
20221203085638 37 180 0.0 0.0 0.00 0.00 0.00 94 1025.7
20221203085145 37 180 0.0 0.0 0.00 0.00 0.00 94 1026.0
20221203085140 37 180 0.0 0.0 0.00 0.00 0.00 94 1025.8
20221203084138 36 180 0.0 0.0 0.00 0.00 0.00 94 1026.1
20221203083637 35 180 0.0 0.0 0.00 0.00 0.00 94 1026.1
20221203083139 35 180 0.0 0.0 0.00 0.00 0.00 93 1026.2
20221203082638 35 180 0.0 0.0 0.00 0.00 0.00 93 1026.2
20221203082138 34 180 0.0 0.0 0.00 0.00 0.00 92 1026.3
20221203081643 34 180 0.0 0.0 0.00 0.00 0.00 92 1026.6
20221203081638 34 180 0.0 0.0 0.00 0.00 0.00 92 1026.6
20221203081256 33 180 0.0 0.0 0.00 0.00 0.00 92 1027.1
20221203080638 33 180 0.0 0.0 0.00 0.00 0.00 92 1026.7
20221203075637 33 180 0.0 0.0 0.00 0.00 0.00 92 1027.4
20221203075134 33 180 0.0 0.0 0.00 0.00 0.00 92 1027.5
20221203074633 33 180 0.0 0.0 0.00 0.00 0.00 91 1027.4
20221203074137 33 180 0.0 0.0 0.00 0.00 0.00 91 1027.7
20221203074131 33 180 0.0 0.0 0.00 0.00 0.00 91 1027.6
20221203073132 33 180 0.0 0.0 0.00 0.00 0.00 91 1027.8
20221203072633 32 180 0.0 0.0 0.00 0.00 0.00 90 1027.8
20221203072132 32 180 0.0 0.0 0.00 0.00 0.00 90 1028.0
20221203071637 32 180 0.0 0.0 0.00 0.00 0.00 90 1028.0
20221203071633 32 180 0.0 0.0 0.00 0.00 0.00 90 1027.9
20221203070631 32 180 0.0 0.0 0.00 0.00 0.00 90 1028.2
20221203070131 33 180 0.0 0.0 0.00 0.00 0.00 90 1028.0
20221203065632 33 180 0.0 0.0 0.00 0.00 0.00 90 1028.2
20221203065132 33 180 0.0 0.0 0.00 0.00 0.00 89 1028.3
20221203064632 33 180 0.0 0.0 0.00 0.00 0.00 89 1028.3
20221203064132 33 180 0.0 0.0 0.00 0.00 0.00 89 1028.2
20221203063632 33 180 0.0 0.0 0.00 0.00 0.00 88 1028.2
20221203063132 33 180 0.0 0.0 0.00 0.00 0.00 88 1028.3
20221203062632 34 180 0.0 0.0 0.00 0.00 0.00 88 1028.4
20221203062132 34 180 0.0 0.0 0.00 0.00 0.00 88 1028.6
20221203061632 34 180 0.0 0.0 0.00 0.00 0.00 88 1028.7
20221203061131 34 180 0.0 0.0 0.00 0.00 0.00 88 1028.8
20221203060632 34 180 0.0 0.0 0.00 0.00 0.00 88 1028.8
20221203060131 35 180 0.0 0.0 0.00 0.00 0.00 88 1028.8
20221203055631 35 180 0.0 0.0 0.00 0.00 0.00 88 1028.8
20221203055134 35 180 0.0 0.0 0.00 0.00 0.00 88 1028.7
20221203055130 35 180 0.0 0.0 0.00 0.00 0.00 88 1028.8
20221203054748 36 180 0.0 0.0 0.00 0.00 0.00 88 1028.8
20221203053634 36 180 0.0 0.0 0.00 0.00 0.00 88 1028.7
20221203053629 36 180 0.0 0.0 0.00 0.00 0.00 88 1028.7
20221203052629 36 180 0.0 0.0 0.00 0.00 0.00 88 1028.7
20221203052134 36 179 0.0 0.0 0.00 0.00 0.00 87 1028.9
20221203052129 36 179 0.0 0.0 0.00 0.00 0.00 87 1028.5
20221203051130 37 179 0.0 0.0 0.00 0.00 0.00 88 1028.9
20221203050630 36 179 0.0 0.0 0.00 0.00 0.00 88 1029.0
20221203050129 36 179 0.0 0.0 0.00 0.00 0.00 88 1028.7
20221203045627 36 179 0.0 0.0 0.00 0.00 0.00 87 1029.0
20221203045125 36 179 0.0 0.0 0.00 0.00 0.00 87 1029.0
20221203044625 36 179 0.0 0.0 0.00 0.00 0.00 87 1028.9
20221203044124 36 179 0.0 0.0 0.00 0.00 0.00 87 1029.0
20221203043624 36 179 0.0 0.0 0.00 0.00 0.00 87 1029.0
20221203043129 36 179 0.0 0.0 0.00 0.00 0.00 87 1029.1
20221203043123 36 179 0.0 0.0 0.00 0.00 0.00 87 1029.0
20221203042123 36 179 0.0 0.0 0.00 0.00 0.00 87 1029.0
20221203041623 36 179 0.0 0.0 0.00 0.00 0.00 87 1029.2
20221203041123 36 179 0.0 0.0 0.00 0.00 0.00 87 1029.2
20221203040624 37 179 0.0 0.0 0.00 0.00 0.00 87 1029.4
20221203040123 36 179 0.0 0.0 0.00 0.00 0.00 87 1029.4
20221203035622 37 179 0.0 0.0 0.00 0.00 0.00 87 1029.5
20221203035126 36 179 0.0 0.0 0.00 0.00 0.00 87 1029.7
20221203035122 36 179 0.0 0.0 0.00 0.00 0.00 87 1029.5
20221203034121 36 179 0.0 0.0 0.00 0.00 0.00 87 1029.6
20221203033621 36 179 0.0 0.0 0.00 0.00 0.00 87 1029.5
20221203033128 36 179 0.0 0.0 0.00 0.00 0.00 87 1029.5
20221203033123 36 179 0.0 0.0 0.00 0.00 0.00 87 1029.5
20221203032121 36 179 0.0 0.0 0.00 0.00 0.00 86 1029.4
20221203031622 36 179 0.0 0.0 0.00 0.00 0.00 86 1029.6
20221203031121 36 179 0.0 0.0 0.00 0.00 0.00 86 1029.7
20221203030622 36 179 0.0 0.0 0.00 0.00 0.00 85 1029.9
20221203030119 36 179 0.0 0.0 0.00 0.00 0.00 86 1029.9
20221203025619 36 179 0.0 0.0 0.00 0.00 0.00 86 1030.0
20221203025119 36 179 0.0 0.0 0.00 0.00 0.00 86 1030.2
20221203024620 36 179 0.0 0.0 0.00 0.00 0.00 86 1030.3
20221203024120 36 179 0.0 0.0 0.00 0.00 0.00 85 1030.2
20221203023619 36 179 0.0 0.0 0.00 0.00 0.00 85 1030.2
20221203023119 36 179 0.0 0.0 0.00 0.00 0.00 85 1030.1
20221203022616 36 179 0.0 0.0 0.00 0.00 0.00 85 1030.1
20221203022116 35 179 0.0 0.0 0.00 0.00 0.00 85 1030.1
20221203021616 35 179 0.0 0.0 0.00 0.00 0.00 85 1030.1
20221203021116 35 179 0.0 0.0 0.00 0.00 0.00 85 1030.1
20221203020616 35 179 0.0 0.0 0.00 0.00 0.00 85 1030.2
20221203020120 35 179 0.0 0.0 0.00 0.00 0.00 85 1030.3
20221203020116 35 179 0.0 0.0 0.00 0.00 0.00 85 1030.2
20221203015732 35 179 0.0 0.0 0.00 0.00 0.00 84 1030.4
20221203014613 35 179 0.0 0.0 0.00 0.00 0.00 84 1030.2
20221203014112 35 179 0.0 0.0 0.00 0.00 0.00 83 1030.4
20221203013613 35 179 0.0 0.0 0.00 0.00 0.00 82 1030.5
20221203013112 36 179 0.0 0.0 0.00 0.00 0.00 81 1030.5
20221203012614 36 179 0.0 0.0 0.00 0.00 0.00 81 1030.7
20221203012111 36 179 0.0 0.0 0.00 0.00 0.00 81 1030.8
20221203011612 36 179 0.0 0.0 0.00 0.00 0.00 81 1030.8
20221203011111 36 179 0.0 0.0 0.00 0.00 0.00 80 1030.9
20221203010612 36 179 0.0 0.0 0.00 0.00 0.00 80 1030.9
20221203010109 37 179 0.0 0.0 0.00 0.00 0.00 80 1030.9
20221203005610 37 179 0.0 0.0 0.00 0.00 0.00 79 1030.9
20221203005108 37 179 0.0 0.0 0.00 0.00 0.00 80 1030.9
20221203004610 37 179 0.0 0.0 0.00 0.00 0.00 79 1031.0
20221203004109 38 179 0.0 0.0 0.00 0.00 0.00 79 1030.9
20221203003610 38 179 0.0 0.0 0.00 0.00 0.00 78 1030.9
20221203003108 38 179 0.0 0.0 0.00 0.00 0.00 78 1031.0
20221203002609 38 179 0.0 0.0 0.00 0.00 0.00 78 1031.1
20221203002109 38 179 0.0 0.0 0.00 0.00 0.00 77 1031.1
20221203001609 38 179 0.0 0.0 0.00 0.00 0.00 77 1031.2
20221203001108 38 179 0.0 0.0 0.00 0.00 0.00 77 1031.3
20221203000609 38 179 0.0 0.0 0.00 0.00 0.00 77 1031.1
20221203000108 38 179 0.0 0.0 0.00 0.00 0.00 77 1031.1
20221202235610 38 179 0.0 0.0 0.00 0.00 0.00 77 1031.3
20221202235113 38 179 0.0 0.0 0.00 0.00 0.00 77 1031.2
20221202235108 38 179 0.0 0.0 0.00 0.00 0.00 77 1031.3
20221202234109 38 179 0.0 0.0 0.00 0.00 0.00 77 1031.2
20221202233610 38 179 0.0 0.0 0.00 0.00 0.00 76 1031.1
20221202233109 38 179 0.0 0.0 0.00 0.00 0.00 76 1031.1
20221202232611 38 179 0.0 0.0 0.00 0.00 0.00 76 1031.1
20221202232607 38 179 0.0 0.0 0.00 0.00 0.00 76 1031.1
20221202231604 38 179 0.0 0.0 0.00 0.00 0.00 76 1031.1
20221202231105 38 179 0.0 0.0 0.00 0.00 0.00 76 1031.0
20221202230604 38 179 0.0 0.0 0.00 0.00 0.00 76 1030.9
20221202230106 38 179 0.0 0.0 0.00 0.00 0.00 75 1030.8
20221202225604 38 179 0.0 0.0 0.00 0.00 0.00 75 1030.8
20221202225107 39 179 0.0 0.0 0.00 0.00 0.00 74 1030.7
20221202225103 38 179 0.0 0.0 0.00 0.00 0.00 75 1030.8
20221202224102 39 179 0.0 0.0 0.00 0.00 0.00 74 1030.8
20221202223607 39 179 0.0 0.0 0.00 0.00 0.00 73 1030.9
20221202223602 39 179 0.0 0.0 0.00 0.00 0.00 73 1030.8
20221202222601 39 179 0.0 0.0 0.00 0.00 0.00 73 1030.9
20221202222102 39 179 0.0 0.0 0.00 0.00 0.00 73 1031.0
20221202221600 39 179 0.0 0.0 0.00 0.00 0.00 73 1030.9
20221202221058 39 179 0.0 0.0 0.00 0.00 0.00 72 1030.8
20221202220558 39 179 0.0 0.0 0.00 0.00 0.00 72 1030.8
20221202220100 39 179 0.0 0.0 0.00 0.00 0.00 72 1030.8
20221202215600 39 179 0.0 0.0 0.00 0.00 0.00 72 1030.8
20221202215058 39 178 0.0 0.0 0.00 0.00 0.00 72 1030.9
20221202214557 39 48 0.0 0.0 0.00 0.00 0.00 72 1030.8
20221202214056 39 48 0.0 0.0 0.00 0.00 0.00 71 1030.8
20221202213554 39 48 0.0 0.0 0.00 0.00 0.00 70 1030.8
20221202213056 39 48 0.0 0.0 0.00 0.00 0.00 69 1030.8
20221202212554 39 48 0.0 0.0 0.00 0.00 0.00 68 1030.8
20221202212055 39 48 0.0 0.0 0.00 0.00 0.00 67 1030.8
20221202211555 40 48 0.0 0.0 0.00 0.00 0.00 66 1030.8
20221202211055 40 48 0.0 3.0 0.00 0.00 0.00 64 1030.8
20221202210554 40 48 0.0 3.0 0.00 0.00 0.00 64 1030.7
20221202210055 40 47 0.0 0.0 0.00 0.00 0.00 62 1030.6
20221202205555 41 47 0.0 4.0 0.00 0.00 0.00 61 1030.7
20221202205053 41 47 0.0 4.0 0.00 0.00 0.00 60 1030.6
20221202204557 42 49 0.0 0.0 0.00 0.00 0.00 58 1030.6
20221202204553 41 49 0.0 0.0 0.00 0.00 0.00 59 1030.6
20221202203552 42 49 0.0 0.0 0.00 0.00 0.00 58 1030.6
20221202203053 42 49 0.0 0.0 0.00 0.00 0.00 57 1030.5
20221202202551 42 49 0.0 2.0 0.00 0.00 0.00 56 1030.6
20221202202052 42 49 1.0 6.0 0.00 0.00 0.00 57 1030.6
20221202201552 43 168 1.0 6.0 0.00 0.00 0.00 56 1030.6
20221202201058 43 290 1.0 4.0 0.00 0.00 0.00 55 1030.4
20221202201053 42 323 1.0 5.0 0.00 0.00 0.00 55 1030.4
20221202200053 43 103 0.0 4.0 0.00 0.00 0.00 56 1030.4
20221202195551 43 162 1.0 4.0 0.00 0.00 0.00 55 1030.4
20221202195051 43 355 1.0 4.0 0.00 0.00 0.00 56 1030.4
20221202194550 43 18 0.0 3.0 0.00 0.00 0.00 55 1030.4
20221202194053 43 108 0.0 3.0 0.00 0.00 0.00 56 1030.3
20221202194048 43 53 0.0 3.0 0.00 0.00 0.00 54 1030.3
20221202193049 44 100 0.0 5.0 0.00 0.00 0.00 54 1030.3
20221202192549 44 26 0.0 5.0 0.00 0.00 0.00 54 1030.3
20221202192046 44 42 1.0 5.0 0.00 0.00 0.00 53 1030.3
20221202191546 44 79 1.0 5.0 0.00 0.00 0.00 53 1030.2
20221202191046 44 51 0.0 3.0 0.00 0.00 0.00 53 1030.2